Time;durP1;ratioP1;P1;durP2;ratioP2;P2;SDS_P1;SDS_P2;PMS_P1;PMS_P2;Temp;Humidity;BMP_temperature;BMP_pressure;BME280_temperature;BME280_humidity;BME280_pressure;Samples;Min_cycle;Max_cycle;Signal;HPM_P1;HPM_P2
2021/05/16 00:02:24;;;;;;;11.10;7.65;;;;;;;;;;5074919;28;20238;-72
2021/05/16 00:04:50;;;;;;;8.50;6.60;;;;;;;;;;5074543;28;20200;-72
2021/05/16 00:07:17;;;;;;;8.48;7.57;;;;;;;;;;5074544;28;20192;-73
2021/05/16 00:09:44;;;;;;;9.20;8.02;;;;;;;;;;5074465;28;20257;-73
2021/05/16 00:12:11;;;;;;;8.98;7.20;;;;;;;;;;5074577;28;20221;-73
2021/05/16 00:14:38;;;;;;;9.57;6.63;;;;;;;;;;5074634;28;20227;-73
2021/05/16 00:17:06;;;;;;;10.88;6.80;;;;;;;;;;5074754;28;20204;-73
2021/05/16 00:19:33;;;;;;;12.13;6.65;;;;;;;;;;5073983;28;20240;-73
2021/05/16 00:21:59;;;;;;;10.57;7.30;;;;;;;;;;5074223;28;20243;-72
2021/05/16 00:24:26;;;;;;;10.82;7.95;;;;;;;;;;5074192;28;20203;-73
2021/05/16 00:26:53;;;;;;;10.25;7.78;;;;;;;;;;5074446;28;20288;-72
2021/05/16 00:29:20;;;;;;;10.13;7.30;;;;;;;;;;5073898;28;20647;-72
2021/05/16 00:31:46;;;;;;;10.65;9.27;;;;;;;;;;5074201;28;20238;-72
2021/05/16 00:34:14;;;;;;;16.73;9.55;;;;;;;;;;5073974;28;20244;-72
2021/05/16 00:36:41;;;;;;;19.48;9.25;;;;;;;;;;5073689;28;20209;-73
2021/05/16 00:39:08;;;;;;;14.63;9.40;;;;;;;;;;5073893;28;20200;-72
2021/05/16 00:41:35;;;;;;;12.23;10.00;;;;;;;;;;5073877;28;20207;-72
2021/05/16 00:44:02;;;;;;;12.63;9.68;;;;;;;;;;5074337;28;20286;-72
2021/05/16 00:46:28;;;;;;;13.30;9.55;;;;;;;;;;5073798;28;20197;-72
2021/05/16 00:48:55;;;;;;;10.90;9.00;;;;;;;;;;5073808;28;20195;-72
2021/05/16 00:51:23;;;;;;;11.57;7.65;;;;;;;;;;5074351;28;20197;-72
2021/05/16 00:53:49;;;;;;;18.50;10.65;;;;;;;;;;5073704;28;20307;-73
2021/05/16 00:56:17;;;;;;;14.38;10.05;;;;;;;;;;5073338;28;20202;-73
2021/05/16 00:58:43;;;;;;;15.57;11.05;;;;;;;;;;5073585;28;20196;-73
2021/05/16 01:01:13;;;;;;;14.85;10.02;;;;;;;;;;5073321;28;20218;-72
2021/05/16 01:03:40;;;;;;;16.02;10.70;;;;;;;;;;5073544;28;20191;-73
2021/05/16 01:06:08;;;;;;;13.45;9.00;;;;;;;;;;5073112;28;20239;-73
2021/05/16 01:08:35;;;;;;;13.90;9.18;;;;;;;;;;5073563;28;20291;-73
2021/05/16 01:11:02;;;;;;;17.10;10.75;;;;;;;;;;5073523;28;20290;-72
2021/05/16 01:13:29;;;;;;;15.65;10.85;;;;;;;;;;5073409;28;20690;-72
2021/05/16 01:15:56;;;;;;;16.80;10.43;;;;;;;;;;5073886;28;20288;-72
2021/05/16 01:18:22;;;;;;;15.45;9.70;;;;;;;;;;5074029;28;20221;-72
2021/05/16 01:20:50;;;;;;;11.93;9.05;;;;;;;;;;5073392;28;20201;-72
2021/05/16 01:23:21;;;;;;;15.38;8.27;;;;;;;;;;5073618;28;20201;-72
2021/05/16 01:25:49;;;;;;;14.20;8.60;;;;;;;;;;5074133;28;20192;-71
2021/05/16 01:28:16;;;;;;;12.20;8.57;;;;;;;;;;5074291;28;20199;-72
2021/05/16 01:30:44;;;;;;;18.65;9.15;;;;;;;;;;5073458;28;20274;-72
2021/05/16 01:33:13;;;;;;;12.32;9.85;;;;;;;;;;5073282;28;20201;-72
2021/05/16 01:35:40;;;;;;;14.38;9.65;;;;;;;;;;5073318;28;20311;-75
2021/05/16 01:38:08;;;;;;;19.80;9.32;;;;;;;;;;5072937;28;20194;-75
2021/05/16 01:40:37;;;;;;;20.85;8.48;;;;;;;;;;5072949;28;20295;-75
2021/05/16 01:43:03;;;;;;;18.63;9.80;;;;;;;;;;5073239;28;20197;-75
2021/05/16 01:45:30;;;;;;;21.58;9.73;;;;;;;;;;5073053;28;20198;-75
2021/05/16 01:47:57;;;;;;;14.60;9.63;;;;;;;;;;5073163;28;20232;-74
2021/05/16 01:50:26;;;;;;;12.18;9.13;;;;;;;;;;5073179;28;20451;-74
2021/05/16 01:52:53;;;;;;;17.33;8.88;;;;;;;;;;5073122;28;20201;-74
2021/05/16 01:55:21;;;;;;;13.85;9.00;;;;;;;;;;5073073;28;20308;-74
2021/05/16 01:57:49;;;;;;;14.20;9.00;;;;;;;;;;5073056;28;20292;-74
2021/05/16 02:00:18;;;;;;;16.52;9.57;;;;;;;;;;5073239;28;20191;-74
2021/05/16 02:02:45;;;;;;;19.23;9.60;;;;;;;;;;5073040;28;20197;-74
2021/05/16 02:05:12;;;;;;;19.35;8.93;;;;;;;;;;5072685;28;20204;-75
2021/05/16 02:07:39;;;;;;;15.33;9.23;;;;;;;;;;5072923;28;20197;-74
2021/05/16 02:10:07;;;;;;;17.45;10.00;;;;;;;;;;5073297;28;20446;-75
2021/05/16 02:12:33;;;;;;;11.23;8.57;;;;;;;;;;5072939;28;20197;-75
2021/05/16 02:15:01;;;;;;;14.02;8.50;;;;;;;;;;5072511;28;20476;-74
2021/05/16 02:17:28;;;;;;;14.05;9.57;;;;;;;;;;5073248;28;20287;-74
2021/05/16 02:19:55;;;;;;;16.52;8.85;;;;;;;;;;5076594;28;20199;-74
2021/05/16 02:22:22;;;;;;;13.77;9.05;;;;;;;;;;5076165;28;20656;-74
2021/05/16 02:24:48;;;;;;;15.88;8.10;;;;;;;;;;5076740;28;20551;-74
2021/05/16 02:27:17;;;;;;;12.50;7.95;;;;;;;;;;5076386;28;20204;-74
2021/05/16 02:29:44;;;;;;;11.77;7.18;;;;;;;;;;5076073;28;20619;-74
2021/05/16 02:32:11;;;;;;;12.98;8.57;;;;;;;;;;5076455;28;20643;-74
2021/05/16 02:34:38;;;;;;;19.02;10.48;;;;;;;;;;5075896;28;20216;-74
2021/05/16 02:37:05;;;;;;;16.90;8.23;;;;;;;;;;5076236;28;20298;-74
2021/05/16 02:39:31;;;;;;;18.90;8.32;;;;;;;;;;5076260;28;20298;-74
2021/05/16 02:41:58;;;;;;;8.43;6.82;;;;;;;;;;5076223;28;20197;-74
2021/05/16 02:44:25;;;;;;;12.32;7.72;;;;;;;;;;5075783;28;20250;-74
2021/05/16 02:46:51;;;;;;;15.38;7.05;;;;;;;;;;5076227;28;20695;-74
2021/05/16 02:49:19;;;;;;;17.25;8.38;;;;;;;;;;5075711;28;20197;-75
2021/05/16 02:51:46;;;;;;;14.25;8.27;;;;;;;;;;5075955;28;20291;-75
2021/05/16 02:54:12;;;;;;;17.52;10.00;;;;;;;;;;5075555;28;20699;-75
2021/05/16 02:56:39;;;;;;;19.30;9.82;;;;;;;;;;5076091;28;20212;-75
2021/05/16 02:59:06;;;;;;;21.40;9.80;;;;;;;;;;5075881;28;20194;-75
2021/05/16 03:01:33;;;;;;;15.20;8.30;;;;;;;;;;5075746;28;20212;-75
2021/05/16 03:04:00;;;;;;;18.45;9.23;;;;;;;;;;5075475;28;20539;-75
2021/05/16 03:06:27;;;;;;;18.38;9.07;;;;;;;;;;5075699;28;20198;-75
2021/05/16 03:08:54;;;;;;;17.13;8.20;;;;;;;;;;5076531;28;20223;-75
2021/05/16 03:11:21;;;;;;;17.35;7.88;;;;;;;;;;5075690;28;20245;-75
2021/05/16 03:13:48;;;;;;;22.58;8.57;;;;;;;;;;5075391;28;20204;-75
2021/05/16 03:16:14;;;;;;;16.48;8.95;;;;;;;;;;5075497;28;20208;-74
2021/05/16 03:18:41;;;;;;;18.27;9.10;;;;;;;;;;5075798;28;20586;-74
2021/05/16 03:21:08;;;;;;;17.20;9.48;;;;;;;;;;5075089;28;20193;-75
2021/05/16 03:23:35;;;;;;;25.20;8.75;;;;;;;;;;5075485;28;20614;-75
2021/05/16 03:26:08;;;;;;;19.80;8.98;;;;;;;;;;5075394;28;20617;-75
2021/05/16 03:28:35;;;;;;;16.33;8.43;;;;;;;;;;5075720;28;20208;-74
2021/05/16 03:31:01;;;;;;;21.70;8.95;;;;;;;;;;5074993;28;20220;-75
2021/05/16 03:33:28;;;;;;;20.58;9.10;;;;;;;;;;5075413;28;20668;-74
2021/05/16 03:35:55;;;;;;;17.10;8.80;;;;;;;;;;5075140;28;20222;-74
2021/05/16 03:38:22;;;;;;;17.20;9.25;;;;;;;;;;5075710;28;20560;-74
2021/05/16 03:40:49;;;;;;;17.98;8.40;;;;;;;;;;5075064;28;20201;-75
2021/05/16 03:43:18;;;;;;;17.23;8.30;;;;;;;;;;5075016;28;20197;-74
2021/05/16 03:45:45;;;;;;;20.95;7.13;;;;;;;;;;5074688;28;20209;-74
2021/05/16 03:48:11;;;;;;;19.05;8.93;;;;;;;;;;5075135;28;20201;-74
2021/05/16 03:50:38;;;;;;;16.73;8.07;;;;;;;;;;5074895;28;20303;-74
2021/05/16 03:53:05;;;;;;;17.52;8.57;;;;;;;;;;5074771;28;20204;-75
2021/05/16 03:55:31;;;;;;;16.63;8.10;;;;;;;;;;5074644;28;20683;-75
2021/05/16 03:57:59;;;;;;;15.60;8.05;;;;;;;;;;5074757;28;20205;-74
2021/05/16 04:00:26;;;;;;;16.17;8.73;;;;;;;;;;5074785;28;20701;-74
2021/05/16 04:02:52;;;;;;;18.17;7.93;;;;;;;;;;5074602;28;20198;-74
2021/05/16 04:05:19;;;;;;;22.08;8.38;;;;;;;;;;5074272;28;20202;-74
2021/05/16 04:07:46;;;;;;;13.60;7.53;;;;;;;;;;5074542;28;20196;-74
2021/05/16 04:10:13;;;;;;;21.92;9.07;;;;;;;;;;5074615;28;20620;-74
2021/05/16 04:12:40;;;;;;;18.97;8.63;;;;;;;;;;5074400;28;20203;-74
2021/05/16 04:15:08;;;;;;;24.50;7.38;;;;;;;;;;5074565;28;20528;-74
2021/05/16 04:17:35;;;;;;;14.93;6.93;;;;;;;;;;5074745;28;20200;-74
2021/05/16 04:20:01;;;;;;;18.13;6.65;;;;;;;;;;5074298;28;20614;-74
2021/05/16 04:22:28;;;;;;;16.67;7.85;;;;;;;;;;5074771;28;20312;-74
2021/05/16 04:24:55;;;;;;;21.75;6.97;;;;;;;;;;5073854;28;20209;-71
2021/05/16 04:27:21;;;;;;;12.27;5.93;;;;;;;;;;5074685;28;20197;-74
2021/05/16 04:29:48;;;;;;;18.13;7.10;;;;;;;;;;5073650;28;20230;-74
2021/05/16 04:32:16;;;;;;;21.27;7.25;;;;;;;;;;5074863;28;20278;-80
2021/05/16 04:34:42;;;;;;;18.63;6.95;;;;;;;;;;5073928;28;20222;-74
2021/05/16 04:37:10;;;;;;;17.58;6.60;;;;;;;;;;5073969;28;20277;-74
2021/05/16 04:39:36;;;;;;;13.00;7.20;;;;;;;;;;5074250;28;20200;-73
2021/05/16 04:42:03;;;;;;;12.90;6.18;;;;;;;;;;5073659;28;20247;-73
2021/05/16 04:44:30;;;;;;;17.42;7.28;;;;;;;;;;5074095;28;20203;-73
2021/05/16 04:46:57;;;;;;;13.75;6.97;;;;;;;;;;5073665;28;20191;-73
2021/05/16 04:49:24;;;;;;;17.10;8.25;;;;;;;;;;5073718;28;20567;-73
2021/05/16 04:51:51;;;;;;;15.07;7.38;;;;;;;;;;5073539;28;20205;-73
2021/05/16 04:54:18;;;;;;;19.00;6.50;;;;;;;;;;5073585;28;20223;-73
2021/05/16 04:56:44;;;;;;;13.38;6.57;;;;;;;;;;5073257;28;20292;-73
2021/05/16 04:59:11;;;;;;;13.40;6.68;;;;;;;;;;5073344;28;20204;-73
2021/05/16 05:01:38;;;;;;;19.25;7.15;;;;;;;;;;5073746;28;20286;-73
2021/05/16 05:04:05;;;;;;;18.85;6.20;;;;;;;;;;5073426;28;20226;-73
2021/05/16 05:06:33;;;;;;;23.95;6.95;;;;;;;;;;5073395;28;20210;-73
2021/05/16 05:08:59;;;;;;;17.33;6.75;;;;;;;;;;5073143;28;20195;-73
2021/05/16 05:11:26;;;;;;;27.00;6.35;;;;;;;;;;5073716;28;20220;-73
2021/05/16 05:13:53;;;;;;;25.23;7.07;;;;;;;;;;5073289;28;20245;-73
2021/05/16 05:16:19;;;;;;;16.00;7.05;;;;;;;;;;5072822;28;20646;-72
2021/05/16 05:18:46;;;;;;;12.02;5.82;;;;;;;;;;5073718;28;20196;-73
2021/05/16 05:21:13;;;;;;;20.10;6.28;;;;;;;;;;5073137;28;20298;-73
2021/05/16 05:23:41;;;;;;;18.92;6.80;;;;;;;;;;5073421;28;20223;-73
2021/05/16 05:26:07;;;;;;;13.88;6.55;;;;;;;;;;5073265;28;20197;-73
2021/05/16 05:28:34;;;;;;;15.38;6.50;;;;;;;;;;5073855;28;21485;-73
2021/05/16 05:31:01;;;;;;;18.02;5.55;;;;;;;;;;5073817;28;20277;-73
2021/05/16 05:33:27;;;;;;;17.75;6.00;;;;;;;;;;5073426;28;20597;-73
2021/05/16 05:35:54;;;;;;;18.73;7.60;;;;;;;;;;5073382;28;20253;-73
2021/05/16 05:38:21;;;;;;;21.95;5.88;;;;;;;;;;5073850;28;20277;-72
2021/05/16 05:40:49;;;;;;;17.63;5.55;;;;;;;;;;5073249;28;20638;-75
2021/05/16 05:43:16;;;;;;;15.85;7.00;;;;;;;;;;5072936;28;20319;-73
2021/05/16 05:45:43;;;;;;;21.20;6.43;;;;;;;;;;5073067;28;20680;-72
2021/05/16 05:48:09;;;;;;;16.52;6.65;;;;;;;;;;5072924;28;20196;-73
2021/05/16 05:50:36;;;;;;;11.73;5.70;;;;;;;;;;5072882;28;20191;-73
2021/05/16 05:53:03;;;;;;;14.77;6.13;;;;;;;;;;5074483;28;20199;-73
2021/05/16 05:55:30;;;;;;;25.23;7.57;;;;;;;;;;5077054;28;20222;-73
2021/05/16 05:57:58;;;;;;;11.27;6.65;;;;;;;;;;5076959;28;20204;-73
2021/05/16 06:00:28;;;;;;;22.75;6.80;;;;;;;;;;5077217;28;20199;-73
2021/05/16 06:02:55;;;;;;;13.75;6.15;;;;;;;;;;5077073;28;20625;-73
2021/05/16 06:05:25;;;;;;;15.13;6.45;;;;;;;;;;5076535;28;20204;-73
2021/05/16 06:07:52;;;;;;;20.38;6.70;;;;;;;;;;5076713;28;20192;-73
2021/05/16 06:10:19;;;;;;;14.70;7.53;;;;;;;;;;5076734;28;20194;-74
2021/05/16 06:12:45;;;;;;;22.15;6.90;;;;;;;;;;5076355;28;20228;-73
2021/05/16 06:15:14;;;;;;;14.25;6.72;;;;;;;;;;5076285;28;20223;-74
2021/05/16 06:17:40;;;;;;;20.38;8.13;;;;;;;;;;5076103;28;20200;-74
2021/05/16 06:20:08;;;;;;;19.27;8.77;;;;;;;;;;5076635;28;20197;-74
2021/05/16 06:22:34;;;;;;;14.63;8.43;;;;;;;;;;5077050;28;20201;-76
2021/05/16 06:25:01;;;;;;;18.65;9.15;;;;;;;;;;5076196;28;20288;-74
2021/05/16 06:27:28;;;;;;;12.30;8.93;;;;;;;;;;5076098;28;20655;-74
2021/05/16 06:29:55;;;;;;;16.53;8.10;;;;;;;;;;5076110;28;20579;-73
2021/05/16 06:32:23;;;;;;;19.85;6.88;;;;;;;;;;5076604;28;20453;-74
2021/05/16 06:34:49;;;;;;;12.63;7.88;;;;;;;;;;5076179;28;20227;-74
2021/05/16 06:37:16;;;;;;;13.97;7.77;;;;;;;;;;5075902;28;20205;-74
2021/05/16 06:39:43;;;;;;;27.17;7.70;;;;;;;;;;5076503;28;20456;-74
2021/05/16 06:42:10;;;;;;;13.50;8.00;;;;;;;;;;5076681;28;20209;-74
2021/05/16 06:44:36;;;;;;;16.43;8.50;;;;;;;;;;5076242;28;20447;-74
2021/05/16 06:47:03;;;;;;;25.73;8.25;;;;;;;;;;5075919;28;20449;-74
2021/05/16 06:49:31;;;;;;;13.53;8.73;;;;;;;;;;5076150;28;20209;-74
2021/05/16 06:51:57;;;;;;;27.43;10.00;;;;;;;;;;5076840;28;20797;-76
2021/05/16 06:54:24;;;;;;;15.48;8.80;;;;;;;;;;5076448;28;20500;-75
2021/05/16 06:56:51;;;;;;;15.77;8.20;;;;;;;;;;5075695;28;20198;-75
2021/05/16 06:59:17;;;;;;;21.95;8.30;;;;;;;;;;5075561;28;20270;-75
2021/05/16 07:01:44;;;;;;;19.60;9.95;;;;;;;;;;5075558;28;20206;-75
2021/05/16 07:04:11;;;;;;;14.03;8.10;;;;;;;;;;5075786;28;20204;-77
2021/05/16 07:06:39;;;;;;;14.67;7.17;;;;;;;;;;5075953;28;20475;-78
2021/05/16 07:09:06;;;;;;;17.77;8.23;;;;;;;;;;5075637;28;20965;-77
2021/05/16 07:11:32;;;;;;;12.80;8.70;;;;;;;;;;5075669;28;20451;-76
2021/05/16 07:13:59;;;;;;;17.17;7.80;;;;;;;;;;5075660;28;20821;-79
2021/05/16 07:16:26;;;;;;;13.53;6.90;;;;;;;;;;5075775;28;20571;-78
2021/05/16 07:18:52;;;;;;;14.20;8.43;;;;;;;;;;5075074;28;20946;-77
2021/05/16 07:21:20;;;;;;;13.87;8.03;;;;;;;;;;5076501;28;20444;-77
2021/05/16 07:23:48;;;;;;;25.03;8.70;;;;;;;;;;5075136;28;20452;-78
2021/05/16 07:26:15;;;;;;;15.50;8.20;;;;;;;;;;5075626;28;20538;-77
2021/05/16 07:28:42;;;;;;;23.17;10.37;;;;;;;;;;5075402;28;20493;-78
2021/05/16 07:31:08;;;;;;;11.00;8.77;;;;;;;;;;5075387;28;20563;-77
2021/05/16 07:33:35;;;;;;;24.10;9.97;;;;;;;;;;5074844;28;20444;-79
2021/05/16 07:36:02;;;;;;;17.07;9.37;;;;;;;;;;5075903;28;20476;-77
2021/05/16 07:38:28;;;;;;;13.40;10.20;;;;;;;;;;5075281;28;20443;-78
2021/05/16 07:40:56;;;;;;;14.40;8.60;;;;;;;;;;5076101;28;20448;-82
2021/05/16 07:43:24;;;;;;;18.00;9.23;;;;;;;;;;5075123;28;20796;-79
2021/05/16 07:45:51;;;;;;;17.40;9.50;;;;;;;;;;5075571;28;20491;-78
2021/05/16 07:48:17;;;;;;;22.67;10.35;;;;;;;;;;5074268;28;20445;-78
2021/05/16 07:50:44;;;;;;;24.63;11.13;;;;;;;;;;5074928;28;20288;-76
2021/05/16 07:53:11;;;;;;;19.00;11.47;;;;;;;;;;5074508;28;21001;-78
2021/05/16 07:55:40;;;;;;;15.70;12.63;;;;;;;;;;5075451;28;20486;-78
2021/05/16 07:58:09;;;;;;;18.33;11.20;;;;;;;;;;5074295;28;20448;-73
2021/05/16 08:00:36;;;;;;;13.77;10.40;;;;;;;;;;5075311;28;20518;-72
2021/05/16 08:03:03;;;;;;;20.87;9.33;;;;;;;;;;5075546;28;20532;-72
2021/05/16 08:05:30;;;;;;;14.27;8.80;;;;;;;;;;5074663;28;20445;-76
2021/05/16 08:07:57;;;;;;;13.87;9.00;;;;;;;;;;5075216;28;20444;-76
2021/05/16 08:10:23;;;;;;;15.87;8.90;;;;;;;;;;5074579;28;20448;-78
2021/05/16 08:12:50;;;;;;;15.63;6.90;;;;;;;;;;5074159;28;20444;-76
2021/05/16 08:15:18;;;;;;;13.80;8.17;;;;;;;;;;5073998;28;20479;-75
2021/05/16 08:17:45;;;;;;;16.90;8.30;;;;;;;;;;5074337;28;20476;-75
2021/05/16 08:20:12;;;;;;;15.70;9.00;;;;;;;;;;5073942;28;20955;-74
2021/05/16 08:22:39;;;;;;;13.03;9.10;;;;;;;;;;5073944;28;20493;-75
2021/05/16 08:25:07;;;;;;;16.93;10.40;;;;;;;;;;5074221;28;20448;-76
2021/05/16 08:27:34;;;;;;;17.10;9.37;;;;;;;;;;5074962;28;20845;-75
2021/05/16 08:30:00;;;;;;;13.43;8.27;;;;;;;;;;5073921;28;20570;-76
2021/05/16 08:32:28;;;;;;;11.90;9.43;;;;;;;;;;5073648;28;20452;-77
2021/05/16 08:34:55;;;;;;;17.47;8.77;;;;;;;;;;5073874;28;20565;-77
2021/05/16 08:37:21;;;;;;;22.80;9.03;;;;;;;;;;5073495;28;20445;-77
2021/05/16 08:39:48;;;;;;;13.77;9.27;;;;;;;;;;5074155;28;20440;-77
2021/05/16 08:42:16;;;;;;;16.57;11.00;;;;;;;;;;5073405;28;20441;-77
2021/05/16 08:44:43;;;;;;;21.27;10.07;;;;;;;;;;5074046;28;20527;-78
2021/05/16 08:47:10;;;;;;;19.70;11.00;;;;;;;;;;5073792;28;20455;-77
2021/05/16 08:49:37;;;;;;;22.90;11.73;;;;;;;;;;5073554;28;20448;-77
2021/05/16 08:52:04;;;;;;;22.83;12.63;;;;;;;;;;5073674;28;20436;-77
2021/05/16 08:54:31;;;;;;;17.33;12.97;;;;;;;;;;5073609;28;20481;-77
2021/05/16 08:56:58;;;;;;;22.27;12.50;;;;;;;;;;5073391;28;20476;-77
2021/05/16 08:59:25;;;;;;;20.33;12.97;;;;;;;;;;5073889;28;20931;-76
2021/05/16 09:01:52;;;;;;;18.67;13.07;;;;;;;;;;5073301;28;20528;-77
2021/05/16 09:04:20;;;;;;;18.80;13.40;;;;;;;;;;5073617;28;20452;-77
2021/05/16 09:06:50;;;;;;;23.03;13.03;;;;;;;;;;5073530;28;20436;-77
2021/05/16 09:09:27;;;;;;;20.60;12.50;;;;;;;;;;5073337;28;20440;-77
2021/05/16 09:11:59;;;;;;;13.77;10.63;;;;;;;;;;5073310;28;20431;-77
2021/05/16 09:14:42;;;;;;;18.37;11.90;;;;;;;;;;5073818;28;20479;-77
2021/05/16 09:17:22;;;;;;;17.13;11.20;;;;;;;;;;5073209;28;20444;-76
2021/05/16 09:19:51;;;;;;;19.17;10.00;;;;;;;;;;5073832;28;20433;-76
2021/05/16 09:22:32;;;;;;;16.33;8.63;;;;;;;;;;5073983;28;20543;-75
2021/05/16 09:25:19;;;;;;;16.60;9.10;;;;;;;;;;5073095;28;20506;-76
2021/05/16 09:27:47;;;;;;;22.17;8.87;;;;;;;;;;5074964;28;20513;-75
2021/05/16 09:30:24;;;;;;;15.40;7.50;;;;;;;;;;5079916;28;20526;-75
2021/05/16 09:32:52;;;;;;;14.47;6.20;;;;;;;;;;5079775;28;20645;-75
2021/05/16 09:35:19;;;;;;;11.93;4.60;;;;;;;;;;5080441;28;20515;-74
2021/05/16 09:37:56;;;;;;;10.27;4.60;;;;;;;;;;5080074;28;21001;-75
2021/05/16 09:40:23;;;;;;;12.57;4.57;;;;;;;;;;5080062;28;20528;-75
2021/05/16 09:43:05;;;;;;;14.27;5.00;;;;;;;;;;5079277;28;20574;-76
2021/05/16 09:45:41;;;;;;;14.00;4.10;;;;;;;;;;5076466;28;20933;-75
2021/05/16 09:48:17;;;;;;;15.40;4.30;;;;;;;;;;5079675;28;20919;-76
2021/05/16 09:50:44;;;;;;;10.33;4.43;;;;;;;;;;5080388;28;20428;-76
2021/05/16 09:53:11;;;;;;;13.43;4.60;;;;;;;;;;5079762;28;20946;-76
2021/05/16 09:55:38;;;;;;;12.63;5.50;;;;;;;;;;5079674;28;20538;-76
2021/05/16 09:58:05;;;;;;;16.70;6.33;;;;;;;;;;5080599;28;20440;-75
2021/05/16 10:00:32;;;;;;;15.27;5.20;;;;;;;;;;5081221;28;20452;-76
2021/05/16 10:02:59;;;;;;;13.77;4.77;;;;;;;;;;5080983;28;20527;-75
2021/05/16 10:05:25;;;;;;;14.30;4.43;;;;;;;;;;5080091;28;20527;-76
2021/05/16 10:07:53;;;;;;;12.90;4.30;;;;;;;;;;5080815;28;20542;-75
2021/05/16 10:10:20;;;;;;;10.33;4.23;;;;;;;;;;5081038;28;20444;-74
2021/05/16 10:12:47;;;;;;;11.57;3.90;;;;;;;;;;5080836;28;20792;-75
2021/05/16 10:15:14;;;;;;;12.60;3.83;;;;;;;;;;5080365;28;20559;-74
2021/05/16 10:17:43;;;;;;;15.13;3.77;;;;;;;;;;5080411;28;20788;-75
2021/05/16 10:20:10;;;;;;;11.07;3.70;;;;;;;;;;5080214;28;20930;-75
2021/05/16 10:22:39;;;;;;;12.40;3.77;;;;;;;;;;5079997;28;20443;-76
2021/05/16 10:25:06;;;;;;;7.97;3.47;;;;;;;;;;5080255;28;20440;-76
2021/05/16 10:27:43;;;;;;;13.70;3.50;;;;;;;;;;5080290;28;20527;-76
2021/05/16 10:30:12;;;;;;;13.10;3.60;;;;;;;;;;5080302;28;20507;-75
2021/05/16 10:32:41;;;;;;;9.03;3.80;;;;;;;;;;5080334;28;20436;-77
2021/05/16 10:35:08;;;;;;;16.63;4.57;;;;;;;;;;5080813;28;20472;-76
2021/05/16 10:37:36;;;;;;;8.30;3.70;;;;;;;;;;5079676;28;20432;-77
2021/05/16 10:40:04;;;;;;;5.47;2.97;;;;;;;;;;5075845;28;20605;-77
2021/05/16 10:42:38;;;;;;;10.07;3.60;;;;;;;;;;5076413;28;20519;-76
2021/05/16 10:45:07;;;;;;;1.40;1.30;;;;;;;;;;5076474;28;20946;-77
2021/05/16 10:47:53;;;;;;;4.33;1.50;;;;;;;;;;5076852;28;20480;-77
2021/05/16 10:50:45;;;;;;;4.43;2.07;;;;;;;;;;5077566;28;20462;-83
2021/05/16 10:53:15;;;;;;;3.80;1.83;;;;;;;;;;5068039;28;20453;-77
2021/05/16 10:55:43;;;;;;;2.57;2.10;;;;;;;;;;5076573;28;20485;-76
2021/05/16 10:58:34;;;;;;;3.43;1.97;;;;;;;;;;5076190;28;20470;-74
2021/05/16 11:01:01;;;;;;;6.00;2.20;;;;;;;;;;5076111;28;20444;-73
2021/05/16 11:03:42;;;;;;;8.52;3.10;;;;;;;;;;5075984;28;20240;-72
2021/05/16 11:06:08;;;;;;;4.63;3.35;;;;;;;;;;5075842;28;20639;-73
2021/05/16 11:09:13;;;;;;;7.83;3.50;;;;;;;;;;5075449;28;20229;-74
2021/05/16 11:11:55;;;;;;;4.90;3.70;;;;;;;;;;5076306;28;20481;-74
2021/05/16 11:14:23;;;;;;;4.17;3.20;;;;;;;;;;5074537;28;20462;-74
2021/05/16 11:16:52;;;;;;;9.13;3.77;;;;;;;;;;5075527;28;20478;-75
2021/05/16 11:19:21;;;;;;;3.33;3.13;;;;;;;;;;5075578;28;20531;-74
2021/05/16 11:21:48;;;;;;;7.20;3.77;;;;;;;;;;5075581;28;20444;-75
2021/05/16 11:24:15;;;;;;;4.40;3.47;;;;;;;;;;5075453;28;20813;-75
2021/05/16 11:26:42;;;;;;;4.03;3.30;;;;;;;;;;5075473;28;20555;-75
2021/05/16 11:29:09;;;;;;;4.60;3.50;;;;;;;;;;5076059;28;20535;-76
2021/05/16 11:31:37;;;;;;;4.30;3.90;;;;;;;;;;5075985;28;20519;-77
2021/05/16 11:34:05;;;;;;;5.40;3.57;;;;;;;;;;5075035;28;20478;-76
2021/05/16 11:36:33;;;;;;;5.70;3.93;;;;;;;;;;5075327;28;20816;-76
2021/05/16 11:39:01;;;;;;;6.43;3.90;;;;;;;;;;5075278;28;20441;-76
2021/05/16 11:41:32;;;;;;;7.97;3.73;;;;;;;;;;5075267;28;20490;-79
2021/05/16 11:43:59;;;;;;;5.50;3.17;;;;;;;;;;5074899;28;20502;-79
2021/05/16 11:46:27;;;;;;;9.47;4.17;;;;;;;;;;5075177;28;20445;-78
2021/05/16 11:48:55;;;;;;;8.77;4.07;;;;;;;;;;5075435;28;20529;-77
2021/05/16 11:51:22;;;;;;;7.43;5.20;;;;;;;;;;5073830;28;20449;-78
2021/05/16 11:53:56;;;;;;;5.77;3.20;;;;;;;;;;5075317;28;20429;-79
2021/05/16 11:56:24;;;;;;;8.57;4.83;;;;;;;;;;5074784;28;20464;-78
2021/05/16 11:58:51;;;;;;;6.90;3.37;;;;;;;;;;5075426;28;20536;-77
2021/05/16 12:01:19;;;;;;;9.30;4.10;;;;;;;;;;5074764;28;20441;-80
2021/05/16 12:03:56;;;;;;;4.90;3.43;;;;;;;;;;5075122;28;20436;-80
2021/05/16 12:06:23;;;;;;;7.70;4.00;;;;;;;;;;5074876;28;20523;-79
2021/05/16 12:09:07;;;;;;;11.47;4.17;;;;;;;;;;5074526;28;20450;-78
2021/05/16 12:11:34;;;;;;;10.77;3.97;;;;;;;;;;5075135;28;20903;-80
2021/05/16 12:14:08;;;;;;;8.23;3.50;;;;;;;;;;5074703;28;20451;-81
2021/05/16 12:16:35;;;;;;;5.43;3.20;;;;;;;;;;5075401;28;20471;-81
2021/05/16 12:19:04;;;;;;;3.37;3.00;;;;;;;;;;5074544;28;20474;-80
2021/05/16 12:21:31;;;;;;;7.87;3.03;;;;;;;;;;5074978;28;20437;-80
2021/05/16 12:23:58;;;;;;;5.83;3.30;;;;;;;;;;5075463;28;20521;-82
2021/05/16 12:26:26;;;;;;;6.30;3.10;;;;;;;;;;5076415;28;20434;-79
2021/05/16 12:28:53;;;;;;;6.30;3.60;;;;;;;;;;5074579;28;20807;-80
2021/05/16 12:31:20;;;;;;;4.30;2.93;;;;;;;;;;5074820;28;20469;-80
2021/05/16 12:33:48;;;;;;;9.90;3.60;;;;;;;;;;5074450;28;20495;-79
2021/05/16 12:36:16;;;;;;;4.30;2.70;;;;;;;;;;5074580;28;20538;-79
2021/05/16 12:38:49;;;;;;;2.73;2.40;;;;;;;;;;5074408;28;20465;-77
2021/05/16 12:41:20;;;;;;;5.50;3.07;;;;;;;;;;5074379;28;20471;-78
2021/05/16 12:44:11;;;;;;;6.93;2.90;;;;;;;;;;5074657;28;20490;-78
2021/05/16 12:46:48;;;;;;;7.13;2.50;;;;;;;;;;5063816;28;20536;-80
2021/05/16 12:49:17;;;;;;;4.53;2.77;;;;;;;;;;5074400;28;20430;-77
2021/05/16 12:51:53;;;;;;;8.07;2.80;;;;;;;;;;5074292;28;20446;-79
2021/05/16 12:54:21;;;;;;;4.57;2.50;;;;;;;;;;5074345;28;20425;-78
2021/05/16 12:56:54;;;;;;;3.80;2.40;;;;;;;;;;5073674;28;20521;-79
2021/05/16 12:59:26;;;;;;;6.63;2.90;;;;;;;;;;5074812;28;20993;-79
2021/05/16 13:01:53;;;;;;;5.43;2.90;;;;;;;;;;5073971;28;20448;-79
2021/05/16 13:04:20;;;;;;;7.60;2.50;;;;;;;;;;5073906;28;20460;-78
2021/05/16 13:06:55;;;;;;;7.90;3.37;;;;;;;;;;5074105;28;20451;-78
2021/05/16 13:09:28;;;;;;;4.90;2.77;;;;;;;;;;5073827;28;20963;-78
2021/05/16 13:11:56;;;;;;;2.80;1.83;;;;;;;;;;5074099;28;20976;-78
2021/05/16 13:14:24;;;;;;;4.90;2.30;;;;;;;;;;5073628;28;20537;-78
2021/05/16 13:16:50;;;;;;;4.10;2.23;;;;;;;;;;5073848;28;20498;-76
2021/05/16 13:19:32;;;;;;;4.33;1.83;;;;;;;;;;5073265;28;20948;-76
2021/05/16 13:22:00;;;;;;;5.80;2.37;;;;;;;;;;5073691;28;20546;-77
2021/05/16 13:24:26;;;;;;;2.13;1.50;;;;;;;;;;5074113;28;20449;-78
2021/05/16 13:26:56;;;;;;;3.70;2.10;;;;;;;;;;5073205;28;20445;-77
2021/05/16 13:29:24;;;;;;;3.63;1.83;;;;;;;;;;5073685;28;20452;-76
2021/05/16 13:31:51;;;;;;;4.07;1.77;;;;;;;;;;5073389;28;20477;-77
2021/05/16 13:34:19;;;;;;;4.43;1.80;;;;;;;;;;5073603;28;20507;-76
2021/05/16 13:36:46;;;;;;;1.97;1.73;;;;;;;;;;5074143;28;20473;-77
2021/05/16 13:39:14;;;;;;;5.33;1.50;;;;;;;;;;5073923;28;20535;-76
2021/05/16 13:41:41;;;;;;;2.10;1.77;;;;;;;;;;5073463;28;20441;-76
2021/05/16 13:44:08;;;;;;;1.60;1.50;;;;;;;;;;5073686;28;20485;-76
2021/05/16 13:46:36;;;;;;;2.00;1.50;;;;;;;;;;5073099;28;20530;-78
2021/05/16 13:49:03;;;;;;;1.57;1.23;;;;;;;;;;5073170;28;20948;-77
2021/05/16 13:51:31;;;;;;;2.80;1.60;;;;;;;;;;5073061;28;20444;-77
2021/05/16 13:53:58;;;;;;;3.27;1.73;;;;;;;;;;5073838;28;21017;-76
2021/05/16 13:56:26;;;;;;;1.37;1.10;;;;;;;;;;5073149;28;20503;-77
2021/05/16 13:58:53;;;;;;;1.97;1.40;;;;;;;;;;5072875;28;20485;-77
2021/05/16 14:01:19;;;;;;;1.30;1.20;;;;;;;;;;5073585;28;20448;-77
2021/05/16 14:03:46;;;;;;;1.50;1.40;;;;;;;;;;5073169;28;20532;-77
2021/05/16 14:06:13;;;;;;;1.20;1.10;;;;;;;;;;5073073;28;20539;-78
2021/05/16 14:08:40;;;;;;;4.00;1.53;;;;;;;;;;5073091;28;20479;-77
2021/05/16 14:11:08;;;;;;;3.10;1.60;;;;;;;;;;5072638;28;20458;-77
2021/05/16 14:13:36;;;;;;;2.70;2.23;;;;;;;;;;5073134;28;20457;-76
2021/05/16 14:16:03;;;;;;;7.30;1.37;;;;;;;;;;5076514;28;21003;-76
2021/05/16 14:18:30;;;;;;;3.20;1.50;;;;;;;;;;5076650;28;20443;-74
2021/05/16 14:20:56;;;;;;;4.23;1.60;;;;;;;;;;5076266;28;20450;-74
2021/05/16 14:23:23;;;;;;;4.83;1.90;;;;;;;;;;5077028;28;20481;-74
2021/05/16 14:25:50;;;;;;;2.83;1.83;;;;;;;;;;5076655;28;20637;-74
2021/05/16 14:28:16;;;;;;;3.40;1.77;;;;;;;;;;5076041;28;20447;-74
2021/05/16 14:30:46;;;;;;;2.30;1.50;;;;;;;;;;5076444;28;20485;-75
2021/05/16 14:33:16;;;;;;;2.87;1.57;;;;;;;;;;5075891;28;20487;-74
2021/05/16 14:35:43;;;;;;;2.27;1.53;;;;;;;;;;5075278;28;20532;-75
2021/05/16 14:38:09;;;;;;;5.97;1.80;;;;;;;;;;5076017;28;20444;-75
2021/05/16 14:40:36;;;;;;;5.10;1.80;;;;;;;;;;5075944;28;20441;-75